sensor_id;sensor_type;location;lat;lon;timestamp;pressure;altitude;pressure_sealevel;temperature
70123;BMP280;57489;37.404;24.920;2024-02-15T00:00:59;100107.38;;;18.31
70123;BMP280;57489;37.404;24.920;2024-02-15T00:06:01;100103.47;;;18.29
70123;BMP280;57489;37.404;24.920;2024-02-15T00:11:04;100100.31;;;18.27
70123;BMP280;57489;37.404;24.920;2024-02-15T00:16:08;100097.81;;;18.22
70123;BMP280;57489;37.404;24.920;2024-02-15T00:21:11;100097.81;;;18.22
70123;BMP280;57489;37.404;24.920;2024-02-15T00:26:13;100089.97;;;18.17
70123;BMP280;57489;37.404;24.920;2024-02-15T00:31:17;100095.28;;;18.17
70123;BMP280;57489;37.404;24.920;2024-02-15T00:36:19;100099.63;;;18.13
70123;BMP280;57489;37.404;24.920;2024-02-15T00:41:21;100085.72;;;18.07
70123;BMP280;57489;37.404;24.920;2024-02-15T00:46:25;100094.97;;;18.10
70123;BMP280;57489;37.404;24.920;2024-02-15T00:51:28;100088.69;;;18.05
70123;BMP280;57489;37.404;24.920;2024-02-15T00:56:31;100095.28;;;18.08
70123;BMP280;57489;37.404;24.920;2024-02-15T01:01:35;100093.41;;;18.09
70123;BMP280;57489;37.404;24.920;2024-02-15T01:06:38;100074.97;;;18.03
70123;BMP280;57489;37.404;24.920;2024-02-15T01:11:42;100081.47;;;17.97
70123;BMP280;57489;37.404;24.920;2024-02-15T01:16:46;100086.19;;;18.00
70123;BMP280;57489;37.404;24.920;2024-02-15T01:21:48;100087.28;;;17.99
70123;BMP280;57489;37.404;24.920;2024-02-15T01:26:52;100071.28;;;17.91
70123;BMP280;57489;37.404;24.920;2024-02-15T01:31:56;100072.84;;;17.92
70123;BMP280;57489;37.404;24.920;2024-02-15T01:36:58;100085.22;;;17.96
70123;BMP280;57489;37.404;24.920;2024-02-15T01:42:01;100082.69;;;17.91
70123;BMP280;57489;37.404;24.920;2024-02-15T01:47:05;100071.91;;;17.88
70123;BMP280;57489;37.404;24.920;2024-02-15T01:52:09;100065.34;;;17.85
70123;BMP280;57489;37.404;24.920;2024-02-15T01:57:12;100081.75;;;17.87
70123;BMP280;57489;37.404;24.920;2024-02-15T02:02:17;100082.22;;;17.89
70123;BMP280;57489;37.404;24.920;2024-02-15T02:07:20;100085.50;;;17.86
70123;BMP280;57489;37.404;24.920;2024-02-15T02:12:22;100080.63;;;17.79
70123;BMP280;57489;37.404;24.920;2024-02-15T02:17:29;100096.56;;;17.79
70123;BMP280;57489;37.404;24.920;2024-02-15T02:22:31;100084.84;;;17.80
70123;BMP280;57489;37.404;24.920;2024-02-15T02:27:35;100088.88;;;17.78
70123;BMP280;57489;37.404;24.920;2024-02-15T02:32:38;100075.59;;;17.78
70123;BMP280;57489;37.404;24.920;2024-02-15T02:37:42;100106.38;;;17.79
70123;BMP280;57489;37.404;24.920;2024-02-15T02:42:50;100091.38;;;17.74
70123;BMP280;57489;37.404;24.920;2024-02-15T02:47:53;100099.34;;;17.74
70123;BMP280;57489;37.404;24.920;2024-02-15T02:52:56;100108.06;;;17.75
70123;BMP280;57489;37.404;24.920;2024-02-15T02:58:01;100109.13;;;17.74
70123;BMP280;57489;37.404;24.920;2024-02-15T03:03:06;100121.34;;;17.75
70123;BMP280;57489;37.404;24.920;2024-02-15T03:08:08;100118.97;;;17.73
70123;BMP280;57489;37.404;24.920;2024-02-15T03:13:12;100112.41;;;17.71
70123;BMP280;57489;37.404;24.920;2024-02-15T03:18:15;100120.56;;;17.74
70123;BMP280;57489;37.404;24.920;2024-02-15T03:23:17;100124.41;;;17.68
70123;BMP280;57489;37.404;24.920;2024-02-15T03:28:24;100120.38;;;17.71
70123;BMP280;57489;37.404;24.920;2024-02-15T03:33:27;100141.59;;;17.71
70123;BMP280;57489;37.404;24.920;2024-02-15T03:38:34;100127.84;;;17.69
70123;BMP280;57489;37.404;24.920;2024-02-15T03:43:38;100127.84;;;17.69
70123;BMP280;57489;37.404;24.920;2024-02-15T03:48:42;100130.63;;;17.64
70123;BMP280;57489;37.404;24.920;2024-02-15T03:53:44;100133.78;;;17.66
70123;BMP280;57489;37.404;24.920;2024-02-15T03:58:50;100133.78;;;17.66
70123;BMP280;57489;37.404;24.920;2024-02-15T04:03:52;100126.91;;;17.65
70123;BMP280;57489;37.404;24.920;2024-02-15T04:08:56;100114.81;;;17.59
70123;BMP280;57489;37.404;24.920;2024-02-15T04:13:59;100112.78;;;17.55
70123;BMP280;57489;37.404;24.920;2024-02-15T04:19:02;100115.31;;;17.61
70123;BMP280;57489;37.404;24.920;2024-02-15T04:24:05;100112.16;;;17.59
70123;BMP280;57489;37.404;24.920;2024-02-15T04:29:10;100107.78;;;17.54
70123;BMP280;57489;37.404;24.920;2024-02-15T04:34:12;100125.94;;;17.61
70123;BMP280;57489;37.404;24.920;2024-02-15T04:39:15;100127.16;;;17.54
70123;BMP280;57489;37.404;24.920;2024-02-15T04:44:26;100126.97;;;17.51
70123;BMP280;57489;37.404;24.920;2024-02-15T04:49:28;100144.63;;;17.55
70123;BMP280;57489;37.404;24.920;2024-02-15T04:54:31;100140.50;;;17.49
70123;BMP280;57489;37.404;24.920;2024-02-15T04:59:35;100143.16;;;17.49
70123;BMP280;57489;37.404;24.920;2024-02-15T05:04:37;100145.22;;;17.52
70123;BMP280;57489;37.404;24.920;2024-02-15T05:09:43;100145.03;;;17.49
70123;BMP280;57489;37.404;24.920;2024-02-15T05:14:46;100136.78;;;17.50
70123;BMP280;57489;37.404;24.920;2024-02-15T05:19:49;100145.22;;;17.52
70123;BMP280;57489;37.404;24.920;2024-02-15T05:24:51;100153.19;;;17.52
70123;BMP280;57489;37.404;24.920;2024-02-15T05:29:56;100165.34;;;17.53
70123;BMP280;57489;37.404;24.920;2024-02-15T05:34:58;100174.53;;;17.70
70123;BMP280;57489;37.404;24.920;2024-02-15T05:40:02;100184.53;;;17.95
70123;BMP280;57489;37.404;24.920;2024-02-15T05:45:29;100184.41;;;17.78
70123;BMP280;57489;37.404;24.920;2024-02-15T05:50:33;100206.00;;;17.63
70123;BMP280;57489;37.404;24.920;2024-02-15T05:55:35;100190.31;;;17.52
70123;BMP280;57489;37.404;24.920;2024-02-15T06:00:42;100209.66;;;17.53
70123;BMP280;57489;37.404;24.920;2024-02-15T06:05:47;100201.22;;;17.51
70123;BMP280;57489;37.404;24.920;2024-02-15T06:10:49;100203.69;;;17.47
70123;BMP280;57489;37.404;24.920;2024-02-15T06:15:54;100207.28;;;17.51
70123;BMP280;57489;37.404;24.920;2024-02-15T06:20:56;100215.25;;;17.51
70123;BMP280;57489;37.404;24.920;2024-02-15T06:26:00;100214.97;;;17.53
70123;BMP280;57489;37.404;24.920;2024-02-15T06:31:05;100208.41;;;17.50
70123;BMP280;57489;37.404;24.920;2024-02-15T06:36:24;100221.69;;;17.50
70123;BMP280;57489;37.404;24.920;2024-02-15T06:41:44;100220.09;;;17.49
70123;BMP280;57489;37.404;24.920;2024-02-15T06:46:48;100231.66;;;17.53
70123;BMP280;57489;37.404;24.920;2024-02-15T06:51:50;100227.75;;;17.51
70123;BMP280;57489;37.404;24.920;2024-02-15T06:56:53;100216.72;;;17.58
70123;BMP280;57489;37.404;24.920;2024-02-15T07:01:57;100255.25;;;17.55
70123;BMP280;57489;37.404;24.920;2024-02-15T07:07:00;100255.53;;;17.53
70123;BMP280;57489;37.404;24.920;2024-02-15T07:12:04;100246.59;;;17.49
70123;BMP280;57489;37.404;24.920;2024-02-15T07:17:09;100259.28;;;17.52
70123;BMP280;57489;37.404;24.920;2024-02-15T07:22:12;100256.03;;;17.55
70123;BMP280;57489;37.404;24.920;2024-02-15T07:27:14;100259.34;;;17.61
70123;BMP280;57489;37.404;24.920;2024-02-15T07:32:18;100264.63;;;17.75
70123;BMP280;57489;37.404;24.920;2024-02-15T07:37:20;100261.88;;;17.80
70123;BMP280;57489;37.404;24.920;2024-02-15T07:42:26;100259.56;;;17.87
70123;BMP280;57489;37.404;24.920;2024-02-15T07:47:31;100260.91;;;17.98
70123;BMP280;57489;37.404;24.920;2024-02-15T07:52:34;100271.63;;;17.93
70123;BMP280;57489;37.404;24.920;2024-02-15T07:57:37;100276.59;;;17.86
70123;BMP280;57489;37.404;24.920;2024-02-15T08:02:41;100284.22;;;17.88
70123;BMP280;57489;37.404;24.920;2024-02-15T08:07:44;100271.88;;;17.83
70123;BMP280;57489;37.404;24.920;2024-02-15T08:12:47;100260.75;;;17.81
70123;BMP280;57489;37.404;24.920;2024-02-15T08:17:54;100276.59;;;17.86
70123;BMP280;57489;37.404;24.920;2024-02-15T08:22:58;100270.78;;;18.06
70123;BMP280;57489;37.404;24.920;2024-02-15T08:28:00;100268.56;;;18.53
70123;BMP280;57489;37.404;24.920;2024-02-15T08:33:07;100269.94;;;18.82
70123;BMP280;57489;37.404;24.920;2024-02-15T08:38:11;100285.28;;;18.85
70123;BMP280;57489;37.404;24.920;2024-02-15T08:43:14;100279.03;;;18.90
70123;BMP280;57489;37.404;24.920;2024-02-15T08:48:18;100269.25;;;18.68
70123;BMP280;57489;37.404;24.920;2024-02-15T08:53:23;100268.56;;;18.53
70123;BMP280;57489;37.404;24.920;2024-02-15T08:58:25;100265.94;;;18.31
70123;BMP280;57489;37.404;24.920;2024-02-15T09:03:29;100282.75;;;18.18
70123;BMP280;57489;37.404;24.920;2024-02-15T09:08:31;100279.41;;;18.12
70123;BMP280;57489;37.404;24.920;2024-02-15T09:13:36;100286.13;;;18.10
70123;BMP280;57489;37.404;24.920;2024-02-15T09:18:41;100269.56;;;18.13
70123;BMP280;57489;37.404;24.920;2024-02-15T09:23:46;100276.47;;;18.14
70123;BMP280;57489;37.404;24.920;2024-02-15T09:28:49;100273.31;;;18.12
70123;BMP280;57489;37.404;24.920;2024-02-15T09:33:54;100274.88;;;18.13
70123;BMP280;57489;37.404;24.920;2024-02-15T09:38:56;100275.69;;;18.13
70123;BMP280;57489;37.404;24.920;2024-02-15T09:43:59;100267.53;;;18.10
70123;BMP280;57489;37.404;24.920;2024-02-15T09:49:05;100267.03;;;18.07
70123;BMP280;57489;37.404;24.920;2024-02-15T09:54:08;100275.63;;;18.04
70123;BMP280;57489;37.404;24.920;2024-02-15T09:59:11;100268.03;;;18.12
70123;BMP280;57489;37.404;24.920;2024-02-15T10:04:15;100250.09;;;18.17
70123;BMP280;57489;37.404;24.920;2024-02-15T10:09:24;100240.44;;;18.21
70123;BMP280;57489;37.404;24.920;2024-02-15T10:14:28;100240.88;;;18.15
70123;BMP280;57489;37.404;24.920;2024-02-15T10:19:32;100244.75;;;18.09
70123;BMP280;57489;37.404;24.920;2024-02-15T10:24:36;100253.50;;;18.09
70123;BMP280;57489;37.404;24.920;2024-02-15T10:29:40;100242.50;;;18.02
70123;BMP280;57489;37.404;24.920;2024-02-15T10:34:47;100246.13;;;18.06
70123;BMP280;57489;37.404;24.920;2024-02-15T10:40:04;100248.13;;;18.00
70123;BMP280;57489;37.404;24.920;2024-02-15T10:45:09;100238.59;;;17.99
70123;BMP280;57489;37.404;24.920;2024-02-15T10:50:15;100227.13;;;17.90
70123;BMP280;57489;37.404;24.920;2024-02-15T10:55:22;100236.09;;;18.03
70123;BMP280;57489;37.404;24.920;2024-02-15T11:00:28;100227.97;;;17.99
70123;BMP280;57489;37.404;24.920;2024-02-15T11:05:36;100230.00;;;18.02
70123;BMP280;57489;37.404;24.920;2024-02-15T11:10:40;100227.34;;;18.02
70123;BMP280;57489;37.404;24.920;2024-02-15T11:15:45;100231.47;;;18.09
70123;BMP280;57489;37.404;24.920;2024-02-15T11:20:51;100239.91;;;18.11
70123;BMP280;57489;37.404;24.920;2024-02-15T11:25:56;100230.25;;;18.15
70123;BMP280;57489;37.404;24.920;2024-02-15T11:31:01;100229.28;;;18.11
70123;BMP280;57489;37.404;24.920;2024-02-15T11:36:06;100217.44;;;18.17
70123;BMP280;57489;37.404;24.920;2024-02-15T11:41:10;100223.84;;;18.16
70123;BMP280;57489;37.404;24.920;2024-02-15T11:46:13;100227.66;;;18.23
70123;BMP280;57489;37.404;24.920;2024-02-15T11:51:27;100227.19;;;18.30
70123;BMP280;57489;37.404;24.920;2024-02-15T11:56:29;100232.53;;;18.30
70123;BMP280;57489;37.404;24.920;2024-02-15T12:01:34;100215.88;;;18.16
70123;BMP280;57489;37.404;24.920;2024-02-15T12:06:58;100218.06;;;18.14
70123;BMP280;57489;37.404;24.920;2024-02-15T12:12:26;100228.47;;;18.10
70123;BMP280;57489;37.404;24.920;2024-02-15T12:17:45;100211.34;;;18.16
70123;BMP280;57489;37.404;24.920;2024-02-15T12:23:06;100210.31;;;18.26
70123;BMP280;57489;37.404;24.920;2024-02-15T12:28:14;100205.97;;;18.30
70123;BMP280;57489;37.404;24.920;2024-02-15T12:33:18;100203.75;;;18.32
70123;BMP280;57489;37.404;24.920;2024-02-15T12:38:23;100182.91;;;18.17
70123;BMP280;57489;37.404;24.920;2024-02-15T12:43:26;100186.19;;;18.14
70123;BMP280;57489;37.404;24.920;2024-02-15T12:48:28;100197.72;;;18.09
70123;BMP280;57489;37.404;24.920;2024-02-15T12:53:32;100195.72;;;18.15
70123;BMP280;57489;37.404;24.920;2024-02-15T12:58:35;100186.78;;;18.11
70123;BMP280;57489;37.404;24.920;2024-02-15T13:03:39;100197.09;;;18.12
70123;BMP280;57489;37.404;24.920;2024-02-15T13:08:43;100208.63;;;18.07
70123;BMP280;57489;37.404;24.920;2024-02-15T13:13:49;100195.50;;;18.02
70123;BMP280;57489;37.404;24.920;2024-02-15T13:18:51;100198.28;;;17.97
70123;BMP280;57489;37.404;24.920;2024-02-15T13:23:55;100206.34;;;17.92
70123;BMP280;57489;37.404;24.920;2024-02-15T13:28:57;100202.84;;;17.83
70123;BMP280;57489;37.404;24.920;2024-02-15T13:34:00;100197.06;;;17.81
70123;BMP280;57489;37.404;24.920;2024-02-15T13:39:04;100193.97;;;17.79
70123;BMP280;57489;37.404;24.920;2024-02-15T13:44:10;100195.53;;;17.80
70123;BMP280;57489;37.404;24.920;2024-02-15T13:49:12;100200.94;;;17.75
70123;BMP280;57489;37.404;24.920;2024-02-15T13:54:16;100203.72;;;17.70
70123;BMP280;57489;37.404;24.920;2024-02-15T13:59:18;100202.13;;;17.69
70123;BMP280;57489;37.404;24.920;2024-02-15T14:04:21;100192.88;;;17.66
70123;BMP280;57489;37.404;24.920;2024-02-15T14:09:24;100201.19;;;17.65
70123;BMP280;57489;37.404;24.920;2024-02-15T14:14:26;100201.19;;;17.65
70123;BMP280;57489;37.404;24.920;2024-02-15T14:19:29;100208.94;;;17.61
70123;BMP280;57489;37.404;24.920;2024-02-15T14:24:33;100211.81;;;17.65
70123;BMP280;57489;37.404;24.920;2024-02-15T14:29:35;100214.47;;;17.65
70123;BMP280;57489;37.404;24.920;2024-02-15T14:34:45;100222.06;;;17.66
70123;BMP280;57489;37.404;24.920;2024-02-15T14:39:49;100223.34;;;17.69
70123;BMP280;57489;37.404;24.920;2024-02-15T14:44:52;100229.16;;;17.71
70123;BMP280;57489;37.404;24.920;2024-02-15T14:49:54;100213.84;;;17.68
70123;BMP280;57489;37.404;24.920;2024-02-15T14:54:58;100217.03;;;17.78
70123;BMP280;57489;37.404;24.920;2024-02-15T15:00:00;100226.47;;;17.85
70123;BMP280;57489;37.404;24.920;2024-02-15T15:05:05;100225.06;;;17.87
70123;BMP280;57489;37.404;24.920;2024-02-15T15:10:26;100226.34;;;17.90
70123;BMP280;57489;37.404;24.920;2024-02-15T15:15:45;100229.97;;;18.25
70123;BMP280;57489;37.404;24.920;2024-02-15T15:20:49;100231.34;;;18.53
70123;BMP280;57489;37.404;24.920;2024-02-15T15:25:53;100226.97;;;18.89
70123;BMP280;57489;37.404;24.920;2024-02-15T15:30:56;100218.72;;;19.16
70123;BMP280;57489;37.404;24.920;2024-02-15T15:35:58;100213.25;;;19.21
70123;BMP280;57489;37.404;24.920;2024-02-15T15:41:02;100218.09;;;19.36
70123;BMP280;57489;37.404;24.920;2024-02-15T15:46:05;100229.38;;;19.42
70123;BMP280;57489;37.404;24.920;2024-02-15T15:51:07;100246.63;;;19.45
70123;BMP280;57489;37.404;24.920;2024-02-15T15:56:11;100234.41;;;19.35
70123;BMP280;57489;37.404;24.920;2024-02-15T16:01:14;100244.09;;;19.31
70123;BMP280;57489;37.404;24.920;2024-02-15T16:06:18;100263.66;;;19.26
70123;BMP280;57489;37.404;24.920;2024-02-15T16:11:22;100258.91;;;19.15
70123;BMP280;57489;37.404;24.920;2024-02-15T16:16:24;100260.66;;;19.10
70123;BMP280;57489;37.404;24.920;2024-02-15T16:21:26;100260.44;;;18.81
70123;BMP280;57489;37.404;24.920;2024-02-15T16:26:32;100279.31;;;18.48
70123;BMP280;57489;37.404;24.920;2024-02-15T16:31:35;100271.72;;;18.55
70123;BMP280;57489;37.404;24.920;2024-02-15T16:36:37;100278.69;;;18.74
70123;BMP280;57489;37.404;24.920;2024-02-15T16:41:46;100292.44;;;18.76
70123;BMP280;57489;37.404;24.920;2024-02-15T16:46:48;100289.91;;;18.71
70123;BMP280;57489;37.404;24.920;2024-02-15T16:51:51;100289.13;;;18.70
70123;BMP280;57489;37.404;24.920;2024-02-15T16:56:55;100290.50;;;18.68
70123;BMP280;57489;37.404;24.920;2024-02-15T17:01:58;100311.91;;;18.63
70123;BMP280;57489;37.404;24.920;2024-02-15T17:07:01;100290.88;;;18.75
70123;BMP280;57489;37.404;24.920;2024-02-15T17:12:05;100310.34;;;19.01
70123;BMP280;57489;37.404;24.920;2024-02-15T17:17:08;100309.84;;;19.39
70123;BMP280;57489;37.404;24.920;2024-02-15T17:22:10;100312.03;;;19.63
70123;BMP280;57489;37.404;24.920;2024-02-15T17:27:14;100310.00;;;19.77
70123;BMP280;57489;37.404;24.920;2024-02-15T17:32:18;100316.91;;;19.87
70123;BMP280;57489;37.404;24.920;2024-02-15T17:37:21;100312.06;;;20.91
70123;BMP280;57489;37.404;24.920;2024-02-15T17:42:24;100315.19;;;21.44
70123;BMP280;57489;37.404;24.920;2024-02-15T17:47:27;100309.38;;;21.42
70123;BMP280;57489;37.404;24.920;2024-02-15T17:52:29;100310.38;;;21.58
70123;BMP280;57489;37.404;24.920;2024-02-15T17:57:33;100304.59;;;21.56
70123;BMP280;57489;37.404;24.920;2024-02-15T18:02:36;100306.38;;;21.64
70123;BMP280;57489;37.404;24.920;2024-02-15T18:07:38;100311.91;;;21.59
70123;BMP280;57489;37.404;24.920;2024-02-15T18:12:42;100310.38;;;21.58
70123;BMP280;57489;37.404;24.920;2024-02-15T18:17:44;100313.88;;;21.50
70123;BMP280;57489;37.404;24.920;2024-02-15T18:22:47;100324.53;;;21.50
70123;BMP280;57489;37.404;24.920;2024-02-15T18:27:50;100323.06;;;21.61
70123;BMP280;57489;37.404;24.920;2024-02-15T18:32:52;100323.94;;;21.53
70123;BMP280;57489;37.404;24.920;2024-02-15T18:37:54;100330.63;;;21.38
70123;BMP280;57489;37.404;24.920;2024-02-15T18:43:00;100321.44;;;21.27
70123;BMP280;57489;37.404;24.920;2024-02-15T18:48:03;100328.59;;;21.14
70123;BMP280;57489;37.404;24.920;2024-02-15T18:53:07;100315.44;;;21.09
70123;BMP280;57489;37.404;24.920;2024-02-15T18:58:15;100330.50;;;21.05
70123;BMP280;57489;37.404;24.920;2024-02-15T19:03:20;100322.09;;;21.24
70123;BMP280;57489;37.404;24.920;2024-02-15T19:08:22;100337.56;;;21.10
70123;BMP280;57489;37.404;24.920;2024-02-15T19:13:26;100318.00;;;20.97
70123;BMP280;57489;37.404;24.920;2024-02-15T19:18:30;100338.94;;;20.86
70123;BMP280;57489;37.404;24.920;2024-02-15T19:23:32;100338.34;;;21.02
70123;BMP280;57489;37.404;24.920;2024-02-15T19:28:36;100333.75;;;20.90
70123;BMP280;57489;37.404;24.920;2024-02-15T19:33:38;100330.03;;;21.12
70123;BMP280;57489;37.404;24.920;2024-02-15T19:38:40;100331.56;;;20.92
70123;BMP280;57489;37.404;24.920;2024-02-15T19:43:44;100321.63;;;20.92
70123;BMP280;57489;37.404;24.920;2024-02-15T19:48:51;100317.09;;;20.84
70123;BMP280;57489;37.404;24.920;2024-02-15T19:53:53;100294.69;;;20.85
70123;BMP280;57489;37.404;24.920;2024-02-15T19:58:57;100289.88;;;20.79
70123;BMP280;57489;37.404;24.920;2024-02-15T20:03:59;100298.59;;;20.88
70123;BMP280;57489;37.404;24.920;2024-02-15T20:09:02;100305.25;;;21.03
70123;BMP280;57489;37.404;24.920;2024-02-15T20:14:07;100309.41;;;20.91
70123;BMP280;57489;37.404;24.920;2024-02-15T20:19:11;100293.38;;;20.71
70123;BMP280;57489;37.404;24.920;2024-02-15T20:24:14;100300.84;;;20.77
70123;BMP280;57489;37.404;24.920;2024-02-15T20:29:18;100309.91;;;21.14
70123;BMP280;57489;37.404;24.920;2024-02-15T20:34:21;100330.03;;;20.74
70123;BMP280;57489;37.404;24.920;2024-02-15T20:39:25;100303.81;;;20.76
70123;BMP280;57489;37.404;24.920;2024-02-15T20:44:29;100303.97;;;21.30
70123;BMP280;57489;37.404;24.920;2024-02-15T20:49:31;100312.59;;;21.77
70123;BMP280;57489;37.404;24.920;2024-02-15T20:54:34;100320.81;;;22.17
70123;BMP280;57489;37.404;24.920;2024-02-15T20:59:37;100318.06;;;22.38
70123;BMP280;57489;37.404;24.920;2024-02-15T21:04:40;100341.38;;;22.50
70123;BMP280;57489;37.404;24.920;2024-02-15T21:09:42;100335.09;;;22.34
70123;BMP280;57489;37.404;24.920;2024-02-15T21:14:46;100338.63;;;22.13
70123;BMP280;57489;37.404;24.920;2024-02-15T21:19:49;100345.72;;;21.97
70123;BMP280;57489;37.404;24.920;2024-02-15T21:24:51;100344.16;;;22.08
70123;BMP280;57489;37.404;24.920;2024-02-15T21:29:55;100342.13;;;21.93
70123;BMP280;57489;37.404;24.920;2024-02-15T21:35:00;100367.53;;;21.99
70123;BMP280;57489;37.404;24.920;2024-02-15T21:40:03;100355.09;;;21.82
70123;BMP280;57489;37.404;24.920;2024-02-15T21:45:09;100350.91;;;21.60
70123;BMP280;57489;37.404;24.920;2024-02-15T21:50:13;100343.84;;;21.76
70123;BMP280;57489;37.404;24.920;2024-02-15T21:55:16;100341.25;;;21.68
70123;BMP280;57489;37.404;24.920;2024-02-15T22:00:20;100341.25;;;21.68
70123;BMP280;57489;37.404;24.920;2024-02-15T22:05:22;100330.81;;;21.54
70123;BMP280;57489;37.404;24.920;2024-02-15T22:10:24;100346.75;;;20.91
70123;BMP280;57489;37.404;24.920;2024-02-15T22:15:28;100349.84;;;20.55
70123;BMP280;57489;37.404;24.920;2024-02-15T22:20:33;100338.19;;;20.22
70123;BMP280;57489;37.404;24.920;2024-02-15T22:25:35;100349.31;;;20.06
70123;BMP280;57489;37.404;24.920;2024-02-15T22:30:39;100350.28;;;19.93
70123;BMP280;57489;37.404;24.920;2024-02-15T22:35:42;100331.16;;;19.74
70123;BMP280;57489;37.404;24.920;2024-02-15T22:40:45;100322.38;;;19.64
70123;BMP280;57489;37.404;24.920;2024-02-15T22:45:49;100328.97;;;19.58
70123;BMP280;57489;37.404;24.920;2024-02-15T22:50:51;100328.66;;;19.51
70123;BMP280;57489;37.404;24.920;2024-02-15T22:55:54;100337.09;;;19.45
70123;BMP280;57489;37.404;24.920;2024-02-15T23:00:58;100330.31;;;19.38
70123;BMP280;57489;37.404;24.920;2024-02-15T23:06:00;100313.25;;;19.31
70123;BMP280;57489;37.404;24.920;2024-02-15T23:11:03;100298.38;;;19.21
70123;BMP280;57489;37.404;24.920;2024-02-15T23:16:08;100308.38;;;19.16
70123;BMP280;57489;37.404;24.920;2024-02-15T23:21:14;100300.41;;;19.16
70123;BMP280;57489;37.404;24.920;2024-02-15T23:26:17;100305.38;;;19.08
70123;BMP280;57489;37.404;24.920;2024-02-15T23:31:21;100301.91;;;18.99
70123;BMP280;57489;37.404;24.920;2024-02-15T23:36:23;100302.06;;;18.94
70123;BMP280;57489;37.404;24.920;2024-02-15T23:41:42;100301.22;;;18.85
70123;BMP280;57489;37.404;24.920;2024-02-15T23:46:46;100300.13;;;18.86
70123;BMP280;57489;37.404;24.920;2024-02-15T23:51:49;100316.25;;;18.81
70123;BMP280;57489;37.404;24.920;2024-02-15T23:56:51;100319.31;;;18.74
